createdAt,value
2023-02-06T00:01:52.614Z,2.03
2023-02-06T00:04:21.189Z,2.00
2023-02-06T00:06:52.237Z,1.90
2023-02-06T00:09:20.386Z,2.20
2023-02-06T00:11:49.702Z,2.10
2023-02-06T00:14:18.075Z,1.80
2023-02-06T00:16:46.029Z,2.10
2023-02-06T00:19:16.740Z,1.60
2023-02-06T00:21:45.287Z,1.80
2023-02-06T00:24:13.348Z,1.57
2023-02-06T00:26:41.274Z,2.13
2023-02-06T00:29:10.786Z,2.53
2023-02-06T00:31:39.015Z,1.83
2023-02-06T00:34:09.583Z,2.23
2023-02-06T00:36:37.450Z,2.63
2023-02-06T00:39:05.579Z,1.50
2023-02-06T00:41:33.543Z,2.37
2023-02-06T00:44:01.589Z,2.03
2023-02-06T00:46:33.666Z,2.20
2023-02-06T00:49:01.848Z,1.90
2023-02-06T00:51:32.402Z,2.37
2023-02-06T00:54:04.154Z,1.87
2023-02-06T00:56:32.185Z,2.50
2023-02-06T00:59:00.181Z,1.60
2023-02-06T01:01:28.368Z,2.10
2023-02-06T01:03:57.635Z,1.63
2023-02-06T01:06:26.020Z,2.50
2023-02-06T01:08:54.109Z,1.77
2023-02-06T01:11:25.428Z,2.10
2023-02-06T01:16:25.389Z,2.13
2023-02-06T01:18:57.348Z,2.67
2023-02-06T01:21:26.288Z,2.17
2023-02-06T01:23:55.511Z,2.23
2023-02-06T01:26:28.215Z,2.23
2023-02-06T01:28:58.890Z,2.53
2023-02-06T01:31:28.724Z,2.60
2023-02-06T01:34:01.578Z,2.33
2023-02-06T01:36:29.925Z,2.90
2023-02-06T01:38:58.460Z,2.57
2023-02-06T01:41:26.598Z,3.23
2023-02-06T01:44:10.808Z,2.37
2023-02-06T01:46:39.363Z,2.70
2023-02-06T01:49:11.182Z,2.03
2023-02-06T01:51:40.085Z,2.40
2023-02-06T01:54:10.134Z,2.53
2023-02-06T01:56:42.747Z,2.40
2023-02-06T01:59:13.592Z,2.67
2023-02-06T02:01:42.016Z,2.60
2023-02-06T02:04:17.429Z,2.80
2023-02-06T02:06:47.218Z,2.10
2023-02-06T02:09:15.834Z,2.50
2023-02-06T02:11:43.904Z,2.60
2023-02-06T02:14:15.867Z,2.80
2023-02-06T02:16:59.965Z,2.57
2023-02-06T02:20:13.332Z,2.67
2023-02-06T02:22:51.077Z,2.67
2023-02-06T02:25:38.696Z,4.00
2023-02-06T02:28:31.635Z,4.43
2023-02-06T02:31:20.833Z,2.53
2023-02-06T02:34:11.591Z,2.20
2023-02-06T02:36:47.562Z,2.30
2023-02-06T02:39:24.104Z,2.53
2023-02-06T02:41:57.467Z,2.87
2023-02-06T02:44:34.424Z,3.17
2023-02-06T02:47:09.152Z,2.33
2023-02-06T02:49:40.755Z,2.63
2023-02-06T02:52:13.449Z,2.17
2023-02-06T02:54:41.573Z,5.90
2023-02-06T02:57:15.274Z,2.27
2023-02-06T03:02:16.791Z,2.00
2023-02-06T03:07:44.690Z,2.07
2023-02-06T03:10:19.721Z,1.90
2023-02-06T03:13:00.434Z,2.27
2023-02-06T03:15:37.328Z,2.20
2023-02-06T03:18:12.233Z,2.20
2023-02-06T03:20:43.599Z,2.20
2023-02-06T03:23:17.274Z,2.40
2023-02-06T03:25:47.851Z,2.07
2023-02-06T03:28:20.037Z,2.47
2023-02-06T03:30:54.087Z,3.10
2023-02-06T03:33:29.884Z,2.27
2023-02-06T03:35:58.408Z,1.97
2023-02-06T03:38:29.185Z,2.07
2023-02-06T03:41:01.296Z,2.10
2023-02-06T03:43:31.478Z,2.43
2023-02-06T03:46:05.109Z,2.35
2023-02-06T03:48:42.236Z,2.20
2023-02-06T03:51:16.453Z,1.98
2023-02-06T03:53:51.003Z,2.70
2023-02-06T03:56:27.652Z,2.70
2023-02-06T03:58:55.800Z,3.07
2023-02-06T04:01:24.655Z,2.70
2023-02-06T04:03:52.729Z,1.77
2023-02-06T04:06:21.028Z,2.60
2023-02-06T04:08:50.293Z,2.40
2023-02-06T04:11:18.348Z,2.23
2023-02-06T04:13:46.183Z,2.23
2023-02-06T04:16:14.066Z,2.10
2023-02-06T04:18:42.068Z,2.50
2023-02-06T04:21:10.096Z,2.27
2023-02-06T04:23:38.149Z,2.33
2023-02-06T04:26:07.522Z,2.70
2023-02-06T04:28:35.562Z,2.37
2023-02-06T04:31:03.710Z,2.40
2023-02-06T04:33:31.706Z,2.30
2023-02-06T04:35:59.711Z,2.53
2023-02-06T04:38:27.680Z,3.13
2023-02-06T04:40:55.702Z,2.07
2023-02-06T04:43:27.576Z,2.77
2023-02-06T04:45:57.885Z,2.30
2023-02-06T04:48:28.460Z,1.60
2023-02-06T04:50:56.942Z,1.93
2023-02-06T04:53:25.140Z,2.33
2023-02-06T04:55:54.954Z,2.93
2023-02-06T04:58:23.082Z,2.63
2023-02-06T05:00:52.396Z,2.53
2023-02-06T05:03:20.782Z,2.67
2023-02-06T05:05:48.704Z,2.80
2023-02-06T05:08:17.138Z,2.83
2023-02-06T05:10:47.403Z,2.63
2023-02-06T05:13:17.915Z,2.13
2023-02-06T05:15:46.032Z,1.73
2023-02-06T05:18:15.987Z,2.33
2023-02-06T05:20:48.489Z,2.10
2023-02-06T05:23:16.475Z,1.90
2023-02-06T05:25:44.753Z,1.60
2023-02-06T05:28:12.796Z,2.00
2023-02-06T05:30:41.129Z,1.33
2023-02-06T05:33:09.298Z,1.73
2023-02-06T05:35:40.316Z,2.20
2023-02-06T05:38:08.885Z,1.37
2023-02-06T05:40:39.308Z,1.70
2023-02-06T05:43:07.735Z,1.53
2023-02-06T05:45:36.251Z,1.77
2023-02-06T05:48:04.843Z,2.30
2023-02-06T05:50:32.880Z,2.37
2023-02-06T05:53:05.039Z,2.63
2023-02-06T05:55:33.035Z,2.80
2023-02-06T05:58:01.039Z,2.07
2023-02-06T06:00:28.932Z,2.47
2023-02-06T06:02:57.128Z,2.10
2023-02-06T06:05:25.857Z,2.10
2023-02-06T06:07:56.627Z,2.37
2023-02-06T06:10:25.966Z,2.10
2023-02-06T06:12:53.968Z,2.43
2023-02-06T06:15:22.058Z,2.07
2023-02-06T06:17:52.709Z,2.37
2023-02-06T06:20:24.069Z,2.10
2023-02-06T06:22:54.260Z,1.90
2023-02-06T06:25:22.191Z,2.43
2023-02-06T06:27:51.968Z,2.13
2023-02-06T06:30:22.093Z,2.40
2023-02-06T06:32:50.154Z,2.10
2023-02-06T06:35:18.604Z,2.60
2023-02-06T06:37:46.868Z,2.03
2023-02-06T06:40:15.045Z,2.23
2023-02-06T06:42:43.507Z,2.13
2023-02-06T06:45:12.807Z,2.80
2023-02-06T06:47:40.937Z,2.27
2023-02-06T06:50:09.556Z,2.13
2023-02-06T06:52:37.727Z,1.80
2023-02-06T06:55:06.345Z,2.10
2023-02-06T06:57:34.715Z,2.33
2023-02-06T07:00:03.082Z,2.47
2023-02-06T07:02:32.586Z,2.90
2023-02-06T07:05:01.030Z,2.60
2023-02-06T07:07:29.113Z,2.70
2023-02-06T07:09:57.349Z,2.20
2023-02-06T07:12:25.461Z,2.10
2023-02-06T07:14:53.630Z,1.70
2023-02-06T07:17:23.929Z,2.27
2023-02-06T07:19:53.476Z,2.50
2023-02-06T07:22:21.462Z,3.23
2023-02-06T07:24:49.718Z,2.43
2023-02-06T07:27:20.339Z,2.50
2023-02-06T07:29:48.306Z,2.73
2023-02-06T07:32:16.401Z,2.00
2023-02-06T07:34:49.311Z,2.53
2023-02-06T07:37:18.996Z,2.33
2023-02-06T07:39:49.153Z,3.03
2023-02-06T07:42:17.411Z,2.07
2023-02-06T07:44:53.940Z,1.97
2023-02-06T07:47:22.041Z,2.60
2023-02-06T07:49:50.169Z,1.97
2023-02-06T07:52:21.924Z,1.90
2023-02-06T07:54:49.841Z,3.43
2023-02-06T07:57:17.847Z,2.00
2023-02-06T07:59:45.854Z,2.20
2023-02-06T08:02:14.367Z,1.90
2023-02-06T08:04:42.785Z,1.90
2023-02-06T08:08:38.198Z,2.33
2023-02-06T08:11:10.057Z,2.13
2023-02-06T08:13:38.513Z,2.60
2023-02-06T08:16:07.835Z,3.17
2023-02-06T08:18:36.240Z,2.73
2023-02-06T08:21:08.444Z,2.23
2023-02-06T08:23:40.393Z,1.83
2023-02-06T08:26:11.331Z,2.40
2023-02-06T08:28:42.277Z,1.97
2023-02-06T08:31:12.704Z,1.87
2023-02-06T08:33:43.279Z,2.23
2023-02-06T08:36:12.398Z,1.17
2023-02-06T08:38:42.444Z,2.27
2023-02-06T08:41:18.156Z,1.80
2023-02-06T08:43:50.102Z,2.17
2023-02-06T08:46:20.079Z,2.20
2023-02-06T08:48:48.417Z,1.93
2023-02-06T08:51:19.422Z,1.83
2023-02-06T08:53:49.143Z,2.53
2023-02-06T08:56:20.149Z,2.50
2023-02-06T08:58:48.201Z,1.80
2023-02-06T09:01:16.643Z,2.23
2023-02-06T09:03:45.772Z,2.30
2023-02-06T09:06:14.799Z,1.80
2023-02-06T09:08:45.559Z,1.87
2023-02-06T09:11:17.361Z,2.73
2023-02-06T09:13:49.207Z,2.63
2023-02-06T09:16:19.102Z,2.40
2023-02-06T09:18:53.244Z,2.17
2023-02-06T09:21:24.659Z,2.67
2023-02-06T09:23:55.145Z,1.70
2023-02-06T09:26:26.712Z,1.70
2023-02-06T09:28:56.454Z,2.13
2023-02-06T09:31:25.485Z,2.13
2023-02-06T09:33:53.952Z,1.77
2023-02-06T09:36:23.066Z,1.30
2023-02-06T09:38:57.149Z,2.83
2023-02-06T09:41:32.191Z,1.83
2023-02-06T09:44:07.747Z,1.63
2023-02-06T09:49:13.508Z,2.50
2023-02-06T09:51:56.451Z,1.60
2023-02-06T09:54:31.109Z,2.73
2023-02-06T09:57:07.529Z,3.40
2023-02-06T09:59:40.587Z,2.70
2023-02-06T10:02:32.865Z,1.90
2023-02-06T10:05:08.389Z,2.93
2023-02-06T10:07:53.679Z,2.30
2023-02-06T10:10:28.379Z,2.00
2023-02-06T10:13:04.450Z,2.40
2023-02-06T10:15:35.412Z,2.47
2023-02-06T10:18:08.127Z,1.83
2023-02-06T10:20:40.657Z,2.28
2023-02-06T10:23:19.444Z,2.10
2023-02-06T10:25:53.825Z,1.90
2023-02-06T10:28:27.012Z,2.22
2023-02-06T10:31:13.855Z,1.85
2023-02-06T10:33:48.208Z,2.13
2023-02-06T10:36:33.193Z,1.95
2023-02-06T10:39:17.988Z,1.80
2023-02-06T10:41:54.545Z,1.90
2023-02-06T10:44:30.844Z,1.80
2023-02-06T10:47:10.473Z,1.27
2023-02-06T10:49:45.080Z,1.42
2023-02-06T10:52:22.443Z,1.90
2023-02-06T10:54:56.566Z,1.67
2023-02-06T10:57:29.878Z,1.45
2023-02-06T11:00:02.135Z,1.10
2023-02-06T11:02:40.064Z,1.40
2023-02-06T11:05:11.317Z,2.00
2023-02-06T11:07:45.417Z,1.58
2023-02-06T11:10:15.947Z,1.58
2023-02-06T11:12:48.026Z,1.48
2023-02-06T11:15:25.875Z,1.23
2023-02-06T11:17:55.730Z,1.67
2023-02-06T11:20:29.393Z,1.52
2023-02-06T11:23:15.803Z,1.40
2023-02-06T11:25:45.096Z,1.80
2023-02-06T11:28:19.630Z,1.00
2023-02-06T11:30:59.782Z,1.80
2023-02-06T11:33:42.828Z,1.27
2023-02-06T11:36:30.514Z,1.25
2023-02-06T11:39:01.653Z,1.70
2023-02-06T11:41:33.286Z,1.13
2023-02-06T11:44:06.714Z,0.82
2023-02-06T11:46:38.836Z,1.08
2023-02-06T11:49:21.998Z,0.55
2023-02-06T11:51:53.748Z,0.80
2023-02-06T11:54:31.210Z,0.98
2023-02-06T11:57:04.260Z,0.60
2023-02-06T11:59:34.886Z,0.90
2023-02-06T12:02:26.492Z,0.95
2023-02-06T12:05:00.977Z,1.10
2023-02-06T12:07:37.126Z,1.27
2023-02-06T12:10:14.589Z,1.10
2023-02-06T12:12:47.153Z,0.65
2023-02-06T12:15:45.610Z,0.73
2023-02-06T12:18:16.270Z,1.05
2023-02-06T12:20:50.205Z,0.45
2023-02-06T12:23:23.623Z,1.05
2023-02-06T12:25:56.634Z,1.13
2023-02-06T12:28:30.147Z,0.93
2023-02-06T12:31:03.770Z,0.52
2023-02-06T12:33:38.420Z,0.95
2023-02-06T12:36:12.979Z,0.98
2023-02-06T12:38:45.945Z,0.57
2023-02-06T12:41:40.145Z,1.27
2023-02-06T12:44:19.393Z,0.88
2023-02-06T12:46:52.972Z,0.88
2023-02-06T12:49:26.503Z,0.55
2023-02-06T12:52:02.841Z,1.23
2023-02-06T12:54:34.913Z,0.70
2023-02-06T12:57:08.077Z,0.88
2023-02-06T12:59:59.845Z,0.68
2023-02-06T13:02:53.090Z,0.82
2023-02-06T13:05:26.248Z,0.68
2023-02-06T13:09:42.257Z,0.90
2023-02-06T13:12:14.981Z,0.70
2023-02-06T13:14:48.836Z,0.70
2023-02-06T13:17:20.609Z,0.50
2023-02-06T13:20:00.573Z,1.42
2023-02-06T13:22:40.483Z,0.75
2023-02-06T13:25:55.925Z,0.77
2023-02-06T13:29:09.733Z,0.95
2023-02-06T13:31:42.051Z,0.80
2023-02-06T13:34:17.386Z,0.75
2023-02-06T13:36:54.063Z,1.50
2023-02-06T13:39:31.905Z,0.77
2023-02-06T13:42:31.409Z,1.10
2023-02-06T13:45:02.301Z,0.90
2023-02-06T13:48:02.707Z,1.08
2023-02-06T13:50:46.819Z,1.42
2023-02-06T13:53:37.384Z,0.90
2023-02-06T13:56:28.296Z,0.57
2023-02-06T13:59:00.527Z,0.50
2023-02-06T14:01:31.067Z,0.90
2023-02-06T14:04:01.286Z,0.63
2023-02-06T14:06:49.930Z,0.68
2023-02-06T14:09:55.134Z,0.93
2023-02-06T14:12:35.578Z,0.80
2023-02-06T14:15:13.272Z,1.05
2023-02-06T14:17:59.808Z,0.95
2023-02-06T14:20:40.424Z,0.93
2023-02-06T14:23:21.934Z,0.43
2023-02-06T14:26:04.315Z,0.60
2023-02-06T14:28:44.273Z,1.00
2023-02-06T14:31:24.900Z,0.65
2023-02-06T14:34:07.774Z,0.30
2023-02-06T14:36:48.319Z,0.57
2023-02-06T14:39:47.604Z,0.70
2023-02-06T14:42:21.937Z,0.60
2023-02-06T14:44:57.049Z,1.10
2023-02-06T14:47:30.358Z,0.70
2023-02-06T14:52:33.563Z,1.10
2023-02-06T14:55:02.039Z,0.52
2023-02-06T14:57:32.481Z,1.00
2023-02-06T15:00:02.771Z,0.95
2023-02-06T15:02:34.459Z,1.33
2023-02-06T15:05:06.834Z,0.93
2023-02-06T15:07:38.528Z,0.68
2023-02-06T15:10:10.384Z,1.27
2023-02-06T15:12:39.276Z,1.02
2023-02-06T15:15:19.253Z,0.87
2023-02-06T15:17:58.061Z,4.00
2023-02-06T15:20:29.454Z,1.23
2023-02-06T15:23:17.019Z,0.77
2023-02-06T15:25:58.215Z,0.67
2023-02-06T15:28:33.356Z,1.37
2023-02-06T15:31:03.078Z,0.77
2023-02-06T15:33:34.125Z,1.33
2023-02-06T15:36:05.016Z,1.10
2023-02-06T15:38:37.375Z,0.80
2023-02-06T15:41:08.476Z,1.40
2023-02-06T15:43:37.349Z,1.13
2023-02-06T15:46:11.943Z,0.90
2023-02-06T15:48:43.775Z,1.20
2023-02-06T15:51:21.614Z,0.87
2023-02-06T15:54:06.585Z,0.90
2023-02-06T15:56:39.795Z,0.90
2023-02-06T15:59:16.252Z,1.17
2023-02-06T16:01:45.192Z,0.47
2023-02-06T16:04:17.284Z,1.33
2023-02-06T16:06:47.570Z,0.90
2023-02-06T16:09:22.137Z,0.93
2023-02-06T16:11:56.351Z,0.67
2023-02-06T16:14:35.333Z,1.27
2023-02-06T16:17:06.849Z,1.20
2023-02-06T16:19:41.910Z,1.07
2023-02-06T16:22:18.683Z,1.07
2023-02-06T16:24:51.670Z,1.40
2023-02-06T16:27:25.819Z,1.10
2023-02-06T16:29:58.407Z,1.13
2023-02-06T16:32:29.824Z,1.07
2023-02-06T16:35:01.302Z,1.17
2023-02-06T16:37:31.740Z,1.53
2023-02-06T16:40:02.630Z,1.13
2023-02-06T16:42:35.797Z,1.17
2023-02-06T16:47:35.597Z,1.00
2023-02-06T16:50:04.196Z,0.40
2023-02-06T16:52:35.413Z,1.50
2023-02-06T16:55:05.878Z,1.63
2023-02-06T16:57:38.155Z,1.33
2023-02-06T17:00:17.007Z,1.07
2023-02-06T17:02:48.874Z,1.30
2023-02-06T17:05:20.530Z,1.10
2023-02-06T17:07:51.770Z,1.03
2023-02-06T17:10:25.028Z,1.60
2023-02-06T17:15:23.580Z,1.70
2023-02-06T17:17:53.751Z,1.43
2023-02-06T17:20:31.138Z,1.10
2023-02-06T17:22:59.334Z,2.17
2023-02-06T17:25:28.872Z,1.60
2023-02-06T17:27:57.164Z,1.33
2023-02-06T17:30:26.587Z,0.80
2023-02-06T17:32:55.088Z,1.17
2023-02-06T17:35:23.170Z,1.00
2023-02-06T17:37:54.016Z,1.00
2023-02-06T17:40:26.775Z,1.40
2023-02-06T17:43:00.355Z,1.30
2023-02-06T17:45:29.161Z,1.03
2023-02-06T17:47:57.449Z,0.90
2023-02-06T17:50:28.067Z,0.80
2023-02-06T17:52:57.478Z,1.10
2023-02-06T17:55:26.873Z,0.87
2023-02-06T17:57:55.557Z,0.70
2023-02-06T18:00:25.716Z,0.90
2023-02-06T18:02:55.476Z,0.77
2023-02-06T18:05:24.294Z,0.57
2023-02-06T18:10:40.417Z,2.50
2023-02-06T18:13:08.544Z,1.10
2023-02-06T18:15:37.209Z,0.80
2023-02-06T18:18:05.597Z,0.60
2023-02-06T18:20:36.758Z,1.27
2023-02-06T18:23:07.903Z,0.80
2023-02-06T18:25:43.184Z,1.27
2023-02-06T18:28:13.888Z,0.60
2023-02-06T18:30:42.608Z,0.67
2023-02-06T18:33:12.776Z,0.70
2023-02-06T18:35:42.509Z,0.50
2023-02-06T18:38:10.967Z,0.70
2023-02-06T18:40:39.854Z,0.77
2023-02-06T18:43:08.879Z,0.43
2023-02-06T18:45:39.132Z,0.60
2023-02-06T18:48:10.280Z,0.53
2023-02-06T18:50:42.362Z,0.50
2023-02-06T18:53:11.308Z,1.10
2023-02-06T18:55:40.400Z,0.40
2023-02-06T18:58:12.160Z,0.53
2023-02-06T19:00:43.305Z,1.10
2023-02-06T19:03:11.315Z,0.43
2023-02-06T19:05:39.342Z,0.70
2023-02-06T19:08:07.599Z,0.73
2023-02-06T19:10:36.201Z,1.17
2023-02-06T19:13:05.825Z,1.10
2023-02-06T19:15:38.210Z,0.70
2023-02-06T19:18:07.757Z,1.10
2023-02-06T19:20:36.317Z,1.03
2023-02-06T19:23:04.573Z,0.83
2023-02-06T19:25:32.905Z,1.50
2023-02-06T19:28:00.944Z,2.20
2023-02-06T19:30:29.166Z,1.93
2023-02-06T19:33:00.987Z,1.40
2023-02-06T19:35:28.955Z,1.20
2023-02-06T19:38:00.796Z,1.90
2023-02-06T19:40:31.575Z,1.47
2023-02-06T19:42:59.590Z,1.73
2023-02-06T19:45:27.741Z,1.13
2023-02-06T19:47:57.106Z,1.10
2023-02-06T19:50:26.493Z,0.80
2023-02-06T19:52:55.041Z,1.73
2023-02-06T19:55:25.569Z,1.40
2023-02-06T19:57:54.026Z,1.37
2023-02-06T20:00:22.175Z,1.83
2023-02-06T20:02:53.078Z,1.60
2023-02-06T20:05:26.276Z,1.23
2023-02-06T20:07:55.873Z,1.47
2023-02-06T20:10:24.996Z,0.93
2023-02-06T20:12:53.584Z,0.90
2023-02-06T20:15:22.703Z,1.03
2023-02-06T20:17:52.182Z,0.90
2023-02-06T20:20:20.999Z,1.57
2023-02-06T20:22:49.188Z,1.13
2023-02-06T20:25:21.697Z,1.00
2023-02-06T20:27:49.913Z,1.13
2023-02-06T20:30:18.986Z,0.93
2023-02-06T20:32:47.035Z,1.07
2023-02-06T20:35:17.987Z,1.90
2023-02-06T20:37:46.235Z,1.73
2023-02-06T20:40:14.566Z,1.83
2023-02-06T20:42:46.266Z,1.03
2023-02-06T20:45:14.487Z,0.87
2023-02-06T20:47:42.578Z,1.27
2023-02-06T20:50:11.067Z,0.83
2023-02-06T20:52:39.545Z,1.40
2023-02-06T20:55:07.776Z,1.10
2023-02-06T20:57:36.508Z,1.17
2023-02-06T21:00:07.166Z,1.17
2023-02-06T21:02:35.520Z,0.90
2023-02-06T21:05:03.687Z,1.20
2023-02-06T21:07:31.889Z,0.70
2023-02-06T21:10:00.100Z,0.93
2023-02-06T21:12:28.231Z,1.40
2023-02-06T21:14:58.728Z,0.90
2023-02-06T21:17:30.827Z,1.50
2023-02-06T21:19:59.176Z,0.80
2023-02-06T21:22:31.735Z,1.08
2023-02-06T21:25:00.321Z,1.33
2023-02-06T21:27:29.220Z,0.80
2023-02-06T21:30:00.309Z,0.83
2023-02-06T21:32:28.375Z,0.90
2023-02-06T21:34:58.002Z,1.67
2023-02-06T21:37:25.930Z,1.50
2023-02-06T21:39:54.054Z,1.63
2023-02-06T21:42:26.179Z,1.30
2023-02-06T21:44:54.136Z,1.33
2023-02-06T21:47:22.437Z,1.97
2023-02-06T21:49:50.472Z,1.27
2023-02-06T21:52:20.069Z,1.43
2023-02-06T21:54:48.452Z,1.77
2023-02-06T21:57:19.078Z,1.50
2023-02-06T21:59:49.840Z,2.10
2023-02-06T22:02:18.732Z,1.70
2023-02-06T22:04:46.851Z,0.90
2023-02-06T22:07:15.462Z,0.93
2023-02-06T22:09:45.035Z,0.93
2023-02-06T22:12:13.201Z,1.43
2023-02-06T22:14:41.274Z,1.20
2023-02-06T22:17:09.584Z,1.37
2023-02-06T22:19:38.129Z,1.53
2023-02-06T22:22:06.275Z,1.23
2023-02-06T22:24:34.350Z,1.63
2023-02-06T22:27:03.932Z,1.50
2023-02-06T22:29:32.164Z,1.20
2023-02-06T22:32:04.693Z,1.37
2023-02-06T22:34:33.376Z,2.47
2023-02-06T22:37:01.551Z,1.50
2023-02-06T22:39:29.497Z,1.30
2023-02-06T22:41:59.758Z,1.80
2023-02-06T22:44:29.286Z,1.40
2023-02-06T22:46:57.598Z,2.00
2023-02-06T22:49:26.361Z,1.87
2023-02-06T22:51:54.508Z,1.17
2023-02-06T22:54:22.595Z,1.83
2023-02-06T22:56:51.126Z,1.80
2023-02-06T22:59:23.462Z,1.50
2023-02-06T23:01:57.810Z,2.00
2023-02-06T23:04:30.572Z,1.97
2023-02-06T23:07:01.128Z,2.08
2023-02-06T23:11:38.555Z,2.00
2023-02-06T23:14:07.852Z,1.47
2023-02-06T23:16:36.951Z,1.80
2023-02-06T23:19:07.032Z,1.90
2023-02-06T23:21:37.023Z,1.50
2023-02-06T23:24:06.498Z,1.90
2023-02-06T23:26:35.222Z,2.23
2023-02-06T23:29:07.849Z,2.13
2023-02-06T23:31:37.398Z,1.83
2023-02-06T23:34:05.972Z,1.67
2023-02-06T23:36:34.261Z,1.63
2023-02-06T23:39:05.707Z,2.20
2023-02-06T23:41:34.222Z,2.13
2023-02-06T23:44:06.439Z,2.83
2023-02-06T23:46:38.766Z,2.20
2023-02-06T23:49:07.342Z,2.13
2023-02-06T23:51:36.417Z,2.77
2023-02-06T23:54:05.302Z,2.17
2023-02-06T23:56:33.567Z,1.60
2023-02-06T23:59:04.225Z,2.13
